createdAt,value
2023-03-12T00:01:41.724Z,14.40
2023-03-12T00:04:08.416Z,14.42
2023-03-12T00:06:35.085Z,14.43
2023-03-12T00:09:02.046Z,14.44
2023-03-12T00:11:29.047Z,14.45
2023-03-12T00:13:57.631Z,14.47
2023-03-12T00:16:24.916Z,14.47
2023-03-12T00:18:53.574Z,14.47
2023-03-12T00:21:21.358Z,14.48
2023-03-12T00:23:51.500Z,14.47
2023-03-12T00:26:18.954Z,14.46
2023-03-12T00:28:45.859Z,14.43
2023-03-12T00:31:22.511Z,14.44
2023-03-12T00:33:50.210Z,14.44
2023-03-12T00:36:21.684Z,14.44
2023-03-12T00:38:48.264Z,14.43
2023-03-12T00:41:14.797Z,14.41
2023-03-12T00:43:41.365Z,14.41
2023-03-12T00:46:07.922Z,14.41
2023-03-12T00:48:34.503Z,14.39
2023-03-12T00:51:01.037Z,14.38
2023-03-12T00:53:27.593Z,14.38
2023-03-12T00:55:54.224Z,14.38
2023-03-12T00:58:20.764Z,14.37
2023-03-12T01:00:47.356Z,14.38
2023-03-12T01:03:14.063Z,14.37
2023-03-12T01:05:40.914Z,14.38
2023-03-12T01:08:08.746Z,14.37
2023-03-12T01:10:36.225Z,14.36
2023-03-12T01:13:02.884Z,14.37
2023-03-12T01:15:29.820Z,14.37
2023-03-12T01:17:56.392Z,14.38
2023-03-12T01:20:23.306Z,14.38
2023-03-12T01:22:50.246Z,14.40
2023-03-12T01:25:16.923Z,14.41
2023-03-12T01:27:43.474Z,14.42
2023-03-12T01:30:10.968Z,14.42
2023-03-12T01:32:37.650Z,14.43
2023-03-12T01:35:05.141Z,14.43
2023-03-12T01:37:32.673Z,14.44
2023-03-12T01:39:59.556Z,14.43
2023-03-12T01:42:26.138Z,14.43
2023-03-12T01:44:59.259Z,14.43
2023-03-12T01:47:26.870Z,14.42
2023-03-12T01:49:54.642Z,14.42
2023-03-12T01:52:41.448Z,14.41
2023-03-12T01:55:14.028Z,14.40
2023-03-12T01:57:52.758Z,14.39
2023-03-12T02:00:25.136Z,14.38
2023-03-12T02:02:52.570Z,14.38
2023-03-12T02:05:32.686Z,14.35
2023-03-12T02:07:59.358Z,14.37
2023-03-12T02:10:26.783Z,14.36
2023-03-12T02:12:53.790Z,14.34
2023-03-12T02:15:20.609Z,14.34
2023-03-12T02:17:47.142Z,14.33
2023-03-12T02:20:30.367Z,14.32
2023-03-12T02:23:07.135Z,14.32
2023-03-12T02:25:46.901Z,14.31
2023-03-12T02:28:16.905Z,14.31
2023-03-12T02:30:46.745Z,14.31
2023-03-12T02:33:15.256Z,14.31
2023-03-12T02:35:42.387Z,14.31
2023-03-12T02:38:45.389Z,14.33
2023-03-12T02:41:21.873Z,14.33
2023-03-12T02:44:04.216Z,14.35
2023-03-12T02:46:35.570Z,14.36
2023-03-12T02:49:02.767Z,14.36
2023-03-12T02:51:29.386Z,14.38
2023-03-12T02:53:56.009Z,14.37
2023-03-12T02:56:24.759Z,14.39
2023-03-12T02:58:51.409Z,14.38
2023-03-12T03:01:18.401Z,14.40
2023-03-12T03:03:45.505Z,14.39
2023-03-12T03:06:12.381Z,14.39
2023-03-12T03:08:39.234Z,14.37
2023-03-12T03:11:06.723Z,14.37
2023-03-12T03:13:33.982Z,14.38
2023-03-12T03:16:02.004Z,14.37
2023-03-12T03:18:29.442Z,14.36
2023-03-12T03:21:01.990Z,14.37
2023-03-12T03:23:28.724Z,14.34
2023-03-12T03:25:55.693Z,14.35
2023-03-12T03:28:24.007Z,14.34
2023-03-12T03:30:58.264Z,14.34
2023-03-12T03:33:25.031Z,14.33
2023-03-12T03:35:51.755Z,14.32
2023-03-12T03:38:18.327Z,14.30
2023-03-12T03:40:44.966Z,14.31
2023-03-12T03:43:11.559Z,14.28
2023-03-12T03:45:38.343Z,14.28
2023-03-12T03:48:05.570Z,14.28
2023-03-12T03:50:32.627Z,14.29
2023-03-12T03:52:59.236Z,14.30
2023-03-12T03:55:25.834Z,14.30
2023-03-12T03:57:52.406Z,14.31
2023-03-12T04:00:19.400Z,14.31
2023-03-12T04:02:45.998Z,14.32
2023-03-12T04:05:12.719Z,14.34
2023-03-12T04:07:39.320Z,14.35
2023-03-12T04:10:06.444Z,14.35
2023-03-12T04:12:33.047Z,14.35
2023-03-12T04:14:59.636Z,14.35
2023-03-12T04:17:26.195Z,14.34
2023-03-12T04:19:52.881Z,14.35
2023-03-12T04:22:19.440Z,14.33
2023-03-12T04:24:46.079Z,14.34
2023-03-12T04:27:12.829Z,14.33
2023-03-12T04:29:40.787Z,14.32
2023-03-12T04:32:07.571Z,14.31
2023-03-12T04:34:34.475Z,14.30
2023-03-12T04:37:02.543Z,14.30
2023-03-12T04:39:29.148Z,14.28
2023-03-12T04:41:55.750Z,14.29
2023-03-12T04:44:22.518Z,14.27
2023-03-12T04:46:49.338Z,14.26
2023-03-12T04:49:15.964Z,14.26
2023-03-12T04:51:42.731Z,14.25
2023-03-12T04:54:09.333Z,14.24
2023-03-12T04:56:35.925Z,14.23
2023-03-12T04:59:02.624Z,14.21
2023-03-12T05:01:31.785Z,14.22
2023-03-12T05:03:58.653Z,14.22
2023-03-12T05:06:25.734Z,14.22
2023-03-12T05:08:53.067Z,14.23
2023-03-12T05:11:20.044Z,14.25
2023-03-12T05:13:49.163Z,14.27
2023-03-12T05:16:16.224Z,14.28
2023-03-12T05:18:43.698Z,14.30
2023-03-12T05:21:15.728Z,14.32
2023-03-12T05:23:43.179Z,14.33
2023-03-12T05:26:21.650Z,14.34
2023-03-12T05:28:48.550Z,14.34
2023-03-12T05:31:16.079Z,14.34
2023-03-12T05:33:43.230Z,14.34
2023-03-12T05:36:10.691Z,14.33
2023-03-12T05:38:37.910Z,14.33
2023-03-12T05:41:05.002Z,14.33
2023-03-12T05:43:31.803Z,14.31
2023-03-12T05:46:00.670Z,14.31
2023-03-12T05:48:27.457Z,14.29
2023-03-12T05:50:54.076Z,14.29
2023-03-12T05:53:20.675Z,14.27
2023-03-12T05:55:47.309Z,14.28
2023-03-12T05:58:13.940Z,14.27
2023-03-12T06:00:41.787Z,14.27
2023-03-12T06:03:08.845Z,14.27
2023-03-12T06:05:36.288Z,14.26
2023-03-12T06:08:03.796Z,14.26
2023-03-12T06:10:30.414Z,14.24
2023-03-12T06:12:57.466Z,14.23
2023-03-12T06:15:24.190Z,14.23
2023-03-12T06:17:50.777Z,14.22
2023-03-12T06:20:17.577Z,14.23
2023-03-12T06:22:44.161Z,14.24
2023-03-12T06:25:10.737Z,14.22
2023-03-12T06:27:37.413Z,14.24
2023-03-12T06:30:04.991Z,14.26
2023-03-12T06:32:31.684Z,14.28
2023-03-12T06:35:00.716Z,14.28
2023-03-12T06:37:27.856Z,14.31
2023-03-12T06:39:54.647Z,14.31
2023-03-12T06:42:22.620Z,14.33
2023-03-12T06:44:50.406Z,14.33
2023-03-12T06:47:17.772Z,14.34
2023-03-12T06:49:44.664Z,14.33
2023-03-12T06:52:11.623Z,14.33
2023-03-12T06:54:38.282Z,14.32
2023-03-12T06:57:04.946Z,14.32
2023-03-12T06:59:31.630Z,14.32
2023-03-12T07:01:58.358Z,14.33
2023-03-12T07:04:25.102Z,14.32
2023-03-12T07:06:51.735Z,14.32
2023-03-12T07:09:19.069Z,14.32
2023-03-12T07:11:45.754Z,14.30
2023-03-12T07:14:12.509Z,14.31
2023-03-12T07:16:39.123Z,14.32
2023-03-12T07:19:05.769Z,14.30
2023-03-12T07:21:32.355Z,14.31
2023-03-12T07:23:59.144Z,14.31
2023-03-12T07:26:25.709Z,14.31
2023-03-12T07:28:52.317Z,14.30
2023-03-12T07:31:18.923Z,14.30
2023-03-12T07:33:45.751Z,14.30
2023-03-12T07:36:12.566Z,14.30
2023-03-12T07:38:39.281Z,14.29
2023-03-12T07:41:06.053Z,14.28
2023-03-12T07:43:33.124Z,14.29
2023-03-12T07:45:59.846Z,14.31
2023-03-12T07:48:26.628Z,14.33
2023-03-12T07:50:53.276Z,14.34
2023-03-12T07:53:19.841Z,14.36
2023-03-12T07:55:47.268Z,14.36
2023-03-12T07:58:15.995Z,14.38
2023-03-12T08:00:42.718Z,14.39
2023-03-12T08:03:09.477Z,14.40
2023-03-12T08:05:36.524Z,14.41
2023-03-12T08:08:03.173Z,14.40
2023-03-12T08:10:29.860Z,14.40
2023-03-12T08:12:56.535Z,14.40
2023-03-12T08:15:23.168Z,14.40
2023-03-12T08:17:49.858Z,14.38
2023-03-12T08:20:17.525Z,14.37
2023-03-12T08:22:44.130Z,14.35
2023-03-12T08:25:10.765Z,14.37
2023-03-12T08:27:37.369Z,14.37
2023-03-12T08:30:06.495Z,14.37
2023-03-12T08:32:33.256Z,14.37
2023-03-12T08:34:59.983Z,14.37
2023-03-12T08:37:26.600Z,14.37
2023-03-12T08:39:53.237Z,14.35
2023-03-12T08:42:22.370Z,14.37
2023-03-12T08:44:48.959Z,14.37
2023-03-12T08:47:15.539Z,14.36
2023-03-12T08:49:42.170Z,14.35
2023-03-12T08:52:09.020Z,14.36
2023-03-12T08:54:35.738Z,14.36
2023-03-12T08:57:02.398Z,14.36
2023-03-12T08:59:28.982Z,14.36
2023-03-12T09:01:56.723Z,14.35
2023-03-12T09:04:23.386Z,14.35
2023-03-12T09:06:49.987Z,14.38
2023-03-12T09:09:16.704Z,14.40
2023-03-12T09:11:43.340Z,14.40
2023-03-12T09:16:57.415Z,14.45
2023-03-12T09:19:24.353Z,14.46
2023-03-12T09:21:50.945Z,14.47
2023-03-12T09:24:17.525Z,14.47
2023-03-12T09:26:44.123Z,14.48
2023-03-12T09:29:10.839Z,14.48
2023-03-12T09:31:37.522Z,14.48
2023-03-12T09:34:05.053Z,14.47
2023-03-12T09:36:32.091Z,14.48
2023-03-12T09:38:58.686Z,14.46
2023-03-12T09:41:30.661Z,14.47
2023-03-12T09:44:02.507Z,14.46
2023-03-12T09:46:35.165Z,14.48
2023-03-12T09:49:06.772Z,14.49
2023-03-12T09:51:38.283Z,14.48
2023-03-12T09:54:08.207Z,14.47
2023-03-12T09:56:35.055Z,14.45
2023-03-12T09:59:02.018Z,14.49
2023-03-12T10:01:36.940Z,14.50
2023-03-12T10:04:26.892Z,14.50
2023-03-12T10:07:12.029Z,14.52
2023-03-12T10:09:49.555Z,14.53
2023-03-12T10:12:41.463Z,14.52
2023-03-12T10:15:35.498Z,14.47
2023-03-12T10:18:21.928Z,14.49
2023-03-12T10:21:00.754Z,14.54
2023-03-12T10:23:39.369Z,14.56
2023-03-12T10:26:13.930Z,14.57
2023-03-12T10:28:52.088Z,14.58
2023-03-12T10:31:23.604Z,14.58
2023-03-12T10:33:57.313Z,14.59
2023-03-12T10:36:44.223Z,14.61
2023-03-12T10:39:20.150Z,14.63
2023-03-12T10:41:48.131Z,14.63
2023-03-12T10:44:22.083Z,14.64
2023-03-12T10:47:01.657Z,14.67
2023-03-12T10:49:31.520Z,14.65
2023-03-12T10:52:16.645Z,14.65
2023-03-12T10:54:48.124Z,14.64
2023-03-12T10:57:15.925Z,14.63
2023-03-12T10:59:45.450Z,14.62
2023-03-12T11:02:34.030Z,14.62
2023-03-12T11:05:02.635Z,14.62
2023-03-12T11:07:33.906Z,14.61
2023-03-12T11:10:14.494Z,14.62
2023-03-12T11:12:41.413Z,14.67
2023-03-12T11:15:23.306Z,14.69
2023-03-12T11:17:50.022Z,14.70
2023-03-12T11:20:22.350Z,14.68
2023-03-12T11:22:51.222Z,14.68
2023-03-12T11:25:36.120Z,14.70
2023-03-12T11:28:03.191Z,14.70
2023-03-12T11:30:35.006Z,14.67
2023-03-12T11:33:02.255Z,14.66
2023-03-12T11:35:50.528Z,14.65
2023-03-12T11:38:17.024Z,14.64
2023-03-12T11:41:08.639Z,14.63
2023-03-12T11:43:54.007Z,14.62
2023-03-12T11:46:32.183Z,14.61
2023-03-12T11:48:58.749Z,14.61
2023-03-12T11:51:33.823Z,14.63
2023-03-12T11:54:26.666Z,14.63
2023-03-12T11:57:01.098Z,14.64
2023-03-12T11:59:39.796Z,14.66
2023-03-12T12:02:12.884Z,14.68
2023-03-12T12:04:52.698Z,14.67
2023-03-12T12:07:37.861Z,14.67
2023-03-12T12:10:30.720Z,14.66
2023-03-12T12:13:08.720Z,14.65
2023-03-12T12:16:03.198Z,14.65
2023-03-12T12:18:59.526Z,14.64
2023-03-12T12:21:45.655Z,14.63
2023-03-12T12:24:28.922Z,14.62
2023-03-12T12:27:27.578Z,14.61
2023-03-12T12:30:12.878Z,14.60
2023-03-12T12:33:01.026Z,14.60
2023-03-12T12:35:34.770Z,14.59
2023-03-12T12:38:30.287Z,14.58
2023-03-12T12:41:17.050Z,14.57
2023-03-12T12:44:11.460Z,14.57
2023-03-12T12:46:40.336Z,14.54
2023-03-12T12:49:11.619Z,14.55
2023-03-12T12:51:42.111Z,14.56
2023-03-12T12:54:21.695Z,14.54
2023-03-12T12:56:54.283Z,14.55
2023-03-12T12:59:35.078Z,14.56
2023-03-12T13:02:03.994Z,14.57
2023-03-12T13:04:36.168Z,14.58
2023-03-12T13:07:13.792Z,14.59
2023-03-12T13:09:41.842Z,14.59
2023-03-12T13:12:14.746Z,14.59
2023-03-12T13:14:45.316Z,14.60
2023-03-12T13:17:27.258Z,14.61
2023-03-12T13:20:18.007Z,14.62
2023-03-12T13:23:23.385Z,14.63
2023-03-12T13:26:08.172Z,14.64
2023-03-12T13:29:06.071Z,14.63
2023-03-12T13:31:37.983Z,14.64
2023-03-12T13:34:19.955Z,14.63
2023-03-12T13:37:17.195Z,14.61
2023-03-12T13:39:44.762Z,14.61
2023-03-12T13:42:23.288Z,14.60
2023-03-12T13:44:51.063Z,14.58
2023-03-12T13:47:30.924Z,14.58
2023-03-12T13:50:09.246Z,14.58
2023-03-12T13:52:51.660Z,14.57
2023-03-12T13:55:25.471Z,14.55
2023-03-12T13:58:21.442Z,14.54
2023-03-12T14:00:51.217Z,14.54
2023-03-12T14:03:28.478Z,14.54
2023-03-12T14:05:59.096Z,14.53
2023-03-12T14:08:47.151Z,14.52
2023-03-12T14:11:16.658Z,14.52
2023-03-12T14:14:28.441Z,14.49
2023-03-12T14:17:00.531Z,14.49
2023-03-12T14:19:33.023Z,14.49
2023-03-12T14:22:05.941Z,14.48
2023-03-12T14:24:35.179Z,14.49
2023-03-12T14:27:03.179Z,14.49
2023-03-12T14:29:36.201Z,14.49
2023-03-12T14:32:05.901Z,14.50
2023-03-12T14:34:39.254Z,14.52
2023-03-12T14:37:16.440Z,14.52
2023-03-12T14:39:50.998Z,14.54
2023-03-12T14:42:32.747Z,14.55
2023-03-12T14:45:34.735Z,14.55
2023-03-12T14:48:01.553Z,14.56
2023-03-12T14:50:30.951Z,14.56
2023-03-12T14:53:12.123Z,14.55
2023-03-12T14:55:38.781Z,14.55
2023-03-12T14:58:25.916Z,14.53
2023-03-12T15:01:04.434Z,14.53
2023-03-12T15:03:36.972Z,14.46
2023-03-12T15:06:03.723Z,14.44
2023-03-12T15:08:33.287Z,14.45
2023-03-12T15:10:59.895Z,14.46
2023-03-12T15:13:27.806Z,14.47
2023-03-12T15:15:55.306Z,14.47
2023-03-12T15:18:26.390Z,14.47
2023-03-12T15:20:53.854Z,14.48
2023-03-12T15:23:21.959Z,14.47
2023-03-12T15:25:48.704Z,14.47
2023-03-12T15:28:15.332Z,14.47
2023-03-12T15:30:43.079Z,14.47
2023-03-12T15:33:11.351Z,14.46
2023-03-12T15:36:03.640Z,14.45
2023-03-12T15:38:33.024Z,14.45
2023-03-12T15:41:06.666Z,14.43
2023-03-12T15:43:33.641Z,14.44
2023-03-12T15:46:02.789Z,14.43
2023-03-12T15:48:35.733Z,14.45
2023-03-12T15:51:02.741Z,14.44
2023-03-12T15:53:34.176Z,14.45
2023-03-12T15:56:02.784Z,14.47
2023-03-12T15:58:36.821Z,14.48
2023-03-12T16:01:24.253Z,14.49
2023-03-12T16:03:51.149Z,14.49
2023-03-12T16:06:25.519Z,14.49
2023-03-12T16:09:01.375Z,14.50
2023-03-12T16:11:30.752Z,14.50
2023-03-12T16:14:24.027Z,14.50
2023-03-12T16:16:51.416Z,14.49
2023-03-12T16:19:20.350Z,14.49
2023-03-12T16:21:47.442Z,14.47
2023-03-12T16:24:16.697Z,14.46
2023-03-12T16:26:49.620Z,14.46
2023-03-12T16:29:17.974Z,14.46
2023-03-12T16:31:45.045Z,14.43
2023-03-12T16:34:12.371Z,14.43
2023-03-12T16:36:39.235Z,14.43
2023-03-12T16:39:05.991Z,14.43
2023-03-12T16:41:32.582Z,14.43
2023-03-12T16:44:00.490Z,14.43
2023-03-12T16:46:31.549Z,14.41
2023-03-12T16:48:59.566Z,14.42
2023-03-12T16:51:28.383Z,14.41
2023-03-12T16:54:08.429Z,14.41
2023-03-12T16:56:38.198Z,14.41
2023-03-12T16:59:07.496Z,14.40
2023-03-12T17:01:35.034Z,14.41
2023-03-12T17:04:01.727Z,14.39
2023-03-12T17:06:28.374Z,14.40
2023-03-12T17:08:55.369Z,14.40
2023-03-12T17:11:27.080Z,14.44
2023-03-12T17:13:56.447Z,14.45
2023-03-12T17:16:23.875Z,14.46
2023-03-12T17:18:50.795Z,14.48
2023-03-12T17:21:18.417Z,14.49
2023-03-12T17:23:46.922Z,14.50
2023-03-12T17:26:13.695Z,14.50
2023-03-12T17:28:40.334Z,14.50
2023-03-12T17:31:07.300Z,14.51
2023-03-12T17:33:33.986Z,14.50
2023-03-12T17:36:05.569Z,14.50
2023-03-12T17:38:32.976Z,14.50
2023-03-12T17:41:01.667Z,14.48
2023-03-12T17:43:28.708Z,14.47
2023-03-12T17:45:55.602Z,14.48
2023-03-12T17:48:23.438Z,14.47
2023-03-12T17:50:50.457Z,14.46
2023-03-12T17:53:17.229Z,14.45
2023-03-12T17:55:43.863Z,14.44
2023-03-12T17:58:10.464Z,14.43
2023-03-12T18:00:37.109Z,14.44
2023-03-12T18:03:06.837Z,14.40
2023-03-12T18:05:33.704Z,14.42
2023-03-12T18:08:00.361Z,14.41
2023-03-12T18:10:27.024Z,14.41
2023-03-12T18:12:53.618Z,14.41
2023-03-12T18:15:20.296Z,14.41
2023-03-12T18:17:49.940Z,14.40
2023-03-12T18:20:25.873Z,14.41
2023-03-12T18:22:59.067Z,14.39
2023-03-12T18:25:25.658Z,14.41
2023-03-12T18:27:53.398Z,14.41
2023-03-12T18:30:21.137Z,14.44
2023-03-12T18:32:48.004Z,14.44
2023-03-12T18:35:14.636Z,14.46
2023-03-12T18:37:41.746Z,14.47
2023-03-12T18:40:10.060Z,14.47
2023-03-12T18:42:36.724Z,14.48
2023-03-12T18:45:03.558Z,14.48
2023-03-12T18:47:31.356Z,14.48
2023-03-12T18:49:58.000Z,14.49
2023-03-12T18:52:24.625Z,14.49
2023-03-12T18:54:51.264Z,14.48
2023-03-12T18:57:17.864Z,14.48
2023-03-12T18:59:46.046Z,14.47
2023-03-12T19:02:12.883Z,14.46
2023-03-12T19:04:39.746Z,14.46
2023-03-12T19:07:07.404Z,14.45
2023-03-12T19:09:34.214Z,14.46
2023-03-12T19:12:00.844Z,14.46
2023-03-12T19:14:27.768Z,14.43
2023-03-12T19:16:54.398Z,14.45
2023-03-12T19:19:21.804Z,14.46
2023-03-12T19:21:48.906Z,14.46
2023-03-12T19:24:15.503Z,14.45
2023-03-12T19:26:42.286Z,14.44
2023-03-12T19:29:09.076Z,14.44
2023-03-12T19:31:35.728Z,14.44
2023-03-12T19:34:02.390Z,14.46
2023-03-12T19:36:28.986Z,14.44
2023-03-12T19:38:55.558Z,14.44
2023-03-12T19:41:22.273Z,14.43
2023-03-12T19:43:48.937Z,14.43
2023-03-12T19:46:15.670Z,14.45
2023-03-12T19:48:42.359Z,14.46
2023-03-12T19:51:10.434Z,14.47
2023-03-12T19:53:37.104Z,14.47
2023-03-12T19:56:04.441Z,14.49
2023-03-12T19:58:31.040Z,14.50
2023-03-12T20:01:01.204Z,14.49
2023-03-12T20:03:28.716Z,14.50
2023-03-12T20:05:55.561Z,14.50
2023-03-12T20:08:22.606Z,14.52
2023-03-12T20:10:49.730Z,14.51
2023-03-12T20:13:17.787Z,14.50
2023-03-12T20:15:48.522Z,14.51
2023-03-12T20:18:15.911Z,14.49
2023-03-12T20:20:42.970Z,14.50
2023-03-12T20:23:09.703Z,14.50
2023-03-12T20:25:39.878Z,14.49
2023-03-12T20:28:07.253Z,14.47
2023-03-12T20:30:35.986Z,14.48
2023-03-12T20:33:02.741Z,14.47
2023-03-12T20:35:29.351Z,14.48
2023-03-12T20:37:55.944Z,14.46
2023-03-12T20:40:22.555Z,14.44
2023-03-12T20:42:49.150Z,14.45
2023-03-12T20:45:15.745Z,14.45
2023-03-12T20:47:42.333Z,14.44
2023-03-12T20:50:09.796Z,14.45
2023-03-12T20:52:36.479Z,14.44
2023-03-12T20:55:03.602Z,14.44
2023-03-12T20:57:30.190Z,14.44
2023-03-12T20:59:56.762Z,14.44
2023-03-12T21:02:23.484Z,14.43
2023-03-12T21:04:52.582Z,14.45
2023-03-12T21:07:19.203Z,14.46
2023-03-12T21:09:45.792Z,14.47
2023-03-12T21:12:12.956Z,14.48
2023-03-12T21:14:40.832Z,14.50
2023-03-12T21:17:09.848Z,14.51
2023-03-12T21:19:36.605Z,14.54
2023-03-12T21:22:03.165Z,14.55
2023-03-12T21:24:32.734Z,14.54
2023-03-12T21:26:59.315Z,14.54
2023-03-12T21:29:25.895Z,14.55
2023-03-12T21:31:53.814Z,14.55
2023-03-12T21:34:23.449Z,14.56
2023-03-12T21:36:50.074Z,14.54
2023-03-12T21:39:17.485Z,14.53
2023-03-12T21:41:44.072Z,14.54
2023-03-12T21:44:10.670Z,14.53
2023-03-12T21:46:37.275Z,14.52
2023-03-12T21:49:03.958Z,14.52
2023-03-12T21:51:30.587Z,14.52
2023-03-12T21:53:58.030Z,14.51
2023-03-12T21:56:29.445Z,14.50
2023-03-12T21:58:57.344Z,14.49
2023-03-12T22:01:24.494Z,14.49
2023-03-12T22:03:51.308Z,14.48
2023-03-12T22:06:17.946Z,14.47
2023-03-12T22:08:46.960Z,14.48
2023-03-12T22:11:14.279Z,14.48
2023-03-12T22:13:40.952Z,14.45
2023-03-12T22:16:09.014Z,14.45
2023-03-12T22:18:53.486Z,14.46
2023-03-12T22:21:22.183Z,14.44
2023-03-12T22:23:53.851Z,14.46
2023-03-12T22:26:22.333Z,14.47
2023-03-12T22:28:51.003Z,14.49
2023-03-12T22:31:19.240Z,14.49
2023-03-12T22:33:46.271Z,14.51
2023-03-12T22:36:15.245Z,14.51
2023-03-12T22:38:42.322Z,14.52
2023-03-12T22:41:25.760Z,14.54
2023-03-12T22:43:54.636Z,14.55
2023-03-12T22:46:22.835Z,14.55
2023-03-12T22:48:56.951Z,14.54
2023-03-12T22:51:24.281Z,14.54
2023-03-12T22:53:51.039Z,14.54
2023-03-12T22:56:18.167Z,14.54
2023-03-12T22:58:45.095Z,14.54
2023-03-12T23:01:13.843Z,14.53
2023-03-12T23:03:41.785Z,14.53
2023-03-12T23:06:30.049Z,14.53
2023-03-12T23:08:57.280Z,14.53
2023-03-12T23:11:28.135Z,14.52
2023-03-12T23:13:54.834Z,14.53
2023-03-12T23:16:23.707Z,14.53
2023-03-12T23:18:50.589Z,14.51
2023-03-12T23:21:19.721Z,14.52
2023-03-12T23:23:47.154Z,14.52
2023-03-12T23:26:16.627Z,14.53
2023-03-12T23:28:43.629Z,14.51
2023-03-12T23:31:10.829Z,14.53
2023-03-12T23:33:37.812Z,14.51
2023-03-12T23:36:05.881Z,14.51
2023-03-12T23:38:32.985Z,14.51
2023-03-12T23:41:19.239Z,14.49
2023-03-12T23:43:46.022Z,14.51
2023-03-12T23:46:14.192Z,14.50
2023-03-12T23:48:41.135Z,14.52
2023-03-12T23:51:12.237Z,14.52
2023-03-12T23:53:39.938Z,14.54
2023-03-12T23:56:08.962Z,14.54
2023-03-12T23:58:36.125Z,14.55
